Ardmore Capella — V7WK3 — position and weather

sailwx.info

Track history (hours):
 
Tides and Currents Weather Stations Pressure Air Temp Water Temp Dewpoint Dewpoint Depression Visibility Wind Speed Wind Dir Waves Ship Positions

Ardmore Capella

Last reported at 2018-May-17 23:08 UTC. Time now 2018-May-23 15:10 UTC.
Position N 39°49' E 025°50'.

Length 144 m; draft 6 m.

Type: Ship. MMSI: 538004321.

Date/timePositionNaut miles runAvg speedWind from/ knotsBaromVisibWave heightAir tempDewpointWater temp
2018-May-17 23:08N 39°49' E 025°50'416.2
2018-May-17 22:54N 39°46' E 025°47'13318.8
2018-May-17 15:50N 37°49' E 024°26'719.6
2018-May-17 15:29N 37°44' E 024°20'1119.7
2018-May-17 14:56N 37°38' E 024°09'819.6
2018-May-17 14:30N 37°37' E 023°58'1019.8
2018-May-17 14:01N 37°37' E 023°46'918.4
2018-May-17 13:31N 37°44' E 023°40'918.7
2018-May-17 13:01N 37°53' E 023°36'4 7.7
2018-May-17 12:31N 37°57' E 023°35'0 0.4
2018-May-17 12:00N 37°57' E 023°35'0 0.0
2018-May-17 11:30N 37°57' E 023°35'0 0.0
2018-May-17 11:00N 37°57' E 023°35'0 0.0
2018-May-17 10:30N 37°57' E 023°35'0 0.0
2018-May-17 10:00N 37°57' E 023°35'0 0.0
2018-May-17 09:30N 37°57' E 023°35'0 0.0
2018-May-17 09:00N 37°57' E 023°35'0 0.0
2018-May-17 08:30N 37°57' E 023°35'0 0.0
2018-May-17 08:00N 37°57' E 023°35'0 0.0
2018-May-17 07:30N 37°57' E 023°35'0 0.0
2018-May-17 07:00N 37°57' E 023°35'0 0.0
2018-May-17 06:30N 37°57' E 023°35'0 0.0
2018-May-17 06:00N 37°57' E 023°35'0 0.0
2018-May-17 05:30N 37°57' E 023°35'0 0.0
2018-May-17 05:00N 37°57' E 023°35'0 0.0
2018-May-17 04:30N 37°57' E 023°35'0 0.0
2018-May-17 04:00N 37°57' E 023°35'0 0.0
2018-May-17 03:30N 37°57' E 023°35'0 0.0
2018-May-16 20:57N 37°57' E 023°35'0 0.0
2018-May-16 20:29N 37°57' E 023°35'0 0.0
2018-May-16 19:59N 37°57' E 023°35'0 0.0
2018-May-16 19:29N 37°57' E 023°35'0 0.0
2018-May-16 18:59N 37°57' E 023°35'0 0.0
2018-May-16 18:29N 37°57' E 023°35'0 0.0
2018-May-16 17:59N 37°57' E 023°35'0 0.0
2018-May-16 17:29N 37°57' E 023°35'0 0.0
2018-May-16 16:59N 37°57' E 023°35'0 0.0
2018-May-16 16:29N 37°57' E 023°35'0 0.0
2018-May-16 15:59N 37°57' E 023°35'0 0.0
2018-May-16 15:29N 37°57' E 023°35'0 0.0
2018-May-16 14:59N 37°57' E 023°35'0 0.1
2018-May-16 14:30N 37°57' E 023°35'2 3.6
2018-May-16 14:01N 37°56' E 023°35'1 1.1
2018-May-16 13:30N 37°55' E 023°36'0 0.1
2018-May-16 13:00N 37°55' E 023°36'0 0.2
2018-May-16 12:30N 37°55' E 023°36'0 0.4
2018-May-16 12:00N 37°55' E 023°36'1 1.8
2018-May-16 11:30N 37°54' E 023°36'1 1.8
2018-May-16 11:01N 37°54' E 023°37'611.6
2018-May-16 10:30N 37°49' E 023°40'613.0
2018-May-16 10:01N 37°43' E 023°44'612.4
2018-May-16 09:30N 37°37' E 023°46'713.4
2018-May-16 09:01N 37°31' E 023°43'713.7
2018-May-16 08:30N 37°24' E 023°40'917.5
2018-May-16 08:00N 37°16' E 023°35'919.0
2018-May-16 07:30N 37°07' E 023°31'918.8
2018-May-16 07:00N 36°59' E 023°26'41818.1
2018-May-15 07:57N 36°29' E 014°46'919.5
2018-May-15 07:30N 36°30' E 014°35'1019.7
2018-May-15 07:00N 36°35' E 014°24'1019.5
2018-May-15 06:30N 36°40' E 014°14'1019.1
2018-May-15 06:00N 36°45' E 014°04'1019.1
2018-May-15 05:30N 36°50' E 013°54'1019.1
2018-May-15 05:00N 36°54' E 013°43'1019.1
2018-May-15 04:30N 36°59' E 013°33'1019.3
2018-May-15 04:00N 37°04' E 013°22'1219.5
2018-May-15 03:24N 37°11' E 013°10'819.3
2018-May-15 03:00N 37°15' E 013°02'1019.3
2018-May-15 02:30N 37°18' E 012°51'18419.4
2018-May-14 17:02N 38°54' E 009°31'220.2
2018-May-14 16:56N 38°55' E 009°29'2011.5
2018-May-14 15:13N 39°07' E 009°09'314.4
2018-May-14 14:59N 39°10' E 009°07'3 6.5
2018-May-14 14:30N 39°13' E 009°04'0 0.0
2018-May-14 13:12N 39°13' E 009°04'0 0.0
2018-May-14 13:00N 39°13' E 009°04'0 0.0
2018-May-14 12:30N 39°13' E 009°04'0 0.0
2018-May-14 11:54N 39°13' E 009°04'0 0.0
2018-May-14 11:30N 39°13' E 009°04'0 0.0
2018-May-14 11:00N 39°13' E 009°04'0 0.0
2018-May-14 10:27N 39°13' E 009°04'0 0.0
2018-May-14 10:00N 39°13' E 009°04'0 0.0
2018-May-14 09:30N 39°13' E 009°04'0 0.0
2018-May-14 09:00N 39°13' E 009°04'0 0.0
2018-May-14 08:30N 39°13' E 009°04'0 0.0
2018-May-14 08:00N 39°13' E 009°04'0 0.0
2018-May-14 07:30N 39°13' E 009°04'0 0.0
2018-May-14 07:00N 39°13' E 009°04'0 0.0
2018-May-14 06:30N 39°13' E 009°04'0 0.0
2018-May-14 06:00N 39°13' E 009°04'0 0.0
2018-May-14 05:30N 39°13' E 009°04'0 0.0
2018-May-14 05:00N 39°13' E 009°04'0 0.0
2018-May-14 04:30N 39°13' E 009°04'0 0.0
2018-May-14 04:00N 39°13' E 009°04'0 0.0
2018-May-14 03:30N 39°13' E 009°04'0 0.0
2018-May-14 03:00N 39°13' E 009°04'0 0.0
2018-May-14 02:30N 39°13' E 009°04'0 0.0
2018-May-14 02:00N 39°13' E 009°04'0 0.0
2018-May-14 01:30N 39°13' E 009°04'0 0.0
2018-May-14 01:00N 39°13' E 009°04'0 0.0
2018-May-14 00:30N 39°13' E 009°04'0 0.0
2018-May-14 00:00N 39°13' E 009°04'0 0.0
2018-May-13 23:30N 39°13' E 009°04'0 0.0
2018-May-13 23:00N 39°13' E 009°04'0 0.0
2018-May-13 22:30N 39°13' E 009°04'0 0.0
2018-May-13 22:00N 39°13' E 009°04'0 0.0
2018-May-13 21:30N 39°13' E 009°04'0 0.0
2018-May-13 21:00N 39°13' E 009°04'0 0.0
2018-May-13 20:30N 39°13' E 009°04'0 0.0
2018-May-13 20:00N 39°13' E 009°04'0 0.0
2018-May-13 19:30N 39°13' E 009°04'0 0.0
2018-May-13 19:00N 39°13' E 009°04'0 0.0
2018-May-13 18:30N 39°13' E 009°04'0 0.0
2018-May-13 18:00N 39°13' E 009°04'0 0.0
2018-May-13 17:30N 39°13' E 009°04'0 0.0
2018-May-13 17:00N 39°13' E 009°04'0 0.0
2018-May-13 16:30N 39°13' E 009°04'0 0.0
2018-May-13 16:00N 39°13' E 009°04'0 0.4
2018-May-13 15:29N 39°13' E 009°04'0 0.7
2018-May-13 14:59N 39°13' E 009°05'5 9.3
2018-May-13 14:30N 39°09' E 009°08'713.1
2018-May-13 14:00N 39°02' E 009°08'918.2
2018-May-13 13:30N 38°53' E 009°08'38919.0
2018-May-12 17:03N 36°51' E 001°20'120.9
2018-May-12 17:00N 36°51' E 001°19'1121.3
2018-May-12 16:28N 36°48' E 001°05'1020.9
2018-May-12 16:00N 36°46' E 000°53'1320.9
2018-May-12 15:22N 36°43' E 000°37'920.6
2018-May-12 14:54N 36°42' E 000°25'920.2
2018-May-12 14:29N 36°40' E 000°15'24620.4
2018-May-12 02:26N 36°03' W 004°47'1321.4
2018-May-12 01:51N 36°01' W 005°03'820.5
2018-May-12 01:28N 36°00' W 005°12'1022.0
2018-May-12 01:00N 35°58' W 005°25'25016.0
2018-May-11 09:20N 38°02' W 009°57'619.4
2018-May-11 09:00N 38°08' W 009°59'1019.4
2018-May-11 08:29N 38°18' W 010°01'919.5
2018-May-11 08:01N 38°27' W 010°03'1019.4
2018-May-11 07:30N 38°37' W 010°05'1019.4
2018-May-11 07:00N 38°46' W 010°06'1019.4
2018-May-11 06:30N 38°56' W 010°05'1019.4
2018-May-11 06:00N 39°06' W 010°06'1019.5
2018-May-11 05:29N 39°16' W 010°06'69917.6
2018-May-09 13:50N 49°51' W 003°16'717.2
2018-May-09 13:25N 49°55' W 003°06'717.2
2018-May-09 13:00N 49°58' W 002°56'917.5
2018-May-09 12:30N 50°00' W 002°43'917.5
2018-May-09 11:59N 50°02' W 002°30'3918.4
2018-May-09 09:52N 50°13' W 001°31'719.2
2018-May-09 09:30N 50°15' W 001°21'1019.6
2018-May-09 09:00N 50°18' W 001°06'1020.3
2018-May-09 08:31N 50°20' W 000°50'1019.8
2018-May-09 08:00N 50°22' W 000°35'1019.5
2018-May-09 07:29N 50°26' W 000°20'1219.2
2018-May-09 06:52N 50°29' W 000°02'719.1
2018-May-09 06:31N 50°31' E 000°08'1018.8
2018-May-09 05:57N 50°34' E 000°24'818.5
2018-May-09 05:31N 50°37' E 000°36'918.2
2018-May-09 05:01N 50°42' E 000°48'918.0
2018-May-09 04:31N 50°48' E 000°59'1018.2
2018-May-09 03:59N 50°54' E 001°10'1518.6
2018-May-09 03:12N 51°04' E 001°27'419.4
2018-May-09 03:00N 51°06' E 001°32'1019.5
2018-May-09 02:31N 51°12' E 001°44'1019.8
2018-May-09 02:01N 51°20' E 001°53'816.5
2018-May-09 01:30N 51°24' E 002°06'918.6
2018-May-09 01:00N 51°21' E 002°20'918.6
2018-May-09 00:30N 51°23' E 002°35'714.4
2018-May-09 00:00N 51°22' E 002°46'714.5
2018-May-08 23:30N 51°23' E 002°58'816.3
2018-May-08 23:00N 51°24' E 003°10'917.4
2018-May-08 22:30N 51°25' E 003°24'714.6
2018-May-08 22:00N 51°26' E 003°36'611.3
2018-May-08 21:30N 51°23' E 003°43'714.8
2018-May-08 21:00N 51°22' E 003°55'510.3
2018-May-08 20:30N 51°25' E 004°02'510.8
2018-May-08 20:00N 51°24' E 004°11'4 8.4
2018-May-08 19:30N 51°21' E 004°16'3 6.2
2018-May-08 19:00N 51°18' E 004°16'0 0.0
2018-May-08 18:30N 51°18' E 004°16'0 0.0
2018-May-08 17:57N 51°18' E 004°16'0 0.0
2018-May-08 17:24N 51°18' E 004°16'0 0.0
2018-May-08 17:00N 51°18' E 004°16'0 0.0
2018-May-08 16:30N 51°18' E 004°16'0 0.0
2018-May-08 16:00N 51°18' E 004°16'0 0.0
2018-May-08 15:27N 51°18' E 004°16'0 0.0
2018-May-08 15:00N 51°18' E 004°16'0 0.0
2018-May-08 14:30N 51°18' E 004°16'0 0.0
2018-May-08 14:00N 51°18' E 004°16'0 0.0
2018-May-08 13:27N 51°18' E 004°16'0 0.0
2018-May-08 13:00N 51°18' E 004°16'0 0.0
2018-May-08 12:30N 51°18' E 004°16'0 0.0
2018-May-08 12:00N 51°18' E 004°16'0 0.0
2018-May-08 11:24N 51°18' E 004°16'0 0.0
2018-May-08 11:00N 51°18' E 004°16'0 0.0
2018-May-08 10:24N 51°18' E 004°16'0 0.0
2018-May-08 10:00N 51°18' E 004°16'0 0.0
2018-May-08 09:30N 51°18' E 004°16'0 0.0
2018-May-08 08:48N 51°18' E 004°16'0 0.0
2018-May-08 08:24N 51°18' E 004°16'0 0.0
2018-May-08 08:00N 51°18' E 004°16'0 0.0
2018-May-08 07:27N 51°18' E 004°16'0 0.0
2018-May-08 07:00N 51°18' E 004°16'0 0.0
2018-May-08 06:30N 51°18' E 004°16'0 0.0
2018-May-08 05:57N 51°18' E 004°16'0 0.0
2018-May-08 05:30N 51°18' E 004°16'0 0.0
2018-May-08 04:57N 51°18' E 004°16'0 0.0
2018-May-08 04:30N 51°18' E 004°16'0 0.0
2018-May-08 04:00N 51°18' E 004°16'0 0.0
2018-May-08 03:30N 51°18' E 004°16'0 0.0
2018-May-08 03:00N 51°18' E 004°16'0 0.0
2018-May-08 02:30N 51°18' E 004°16'0 0.2
2018-May-08 02:01N 51°18' E 004°16'1 2.8
2018-May-08 01:31N 51°19' E 004°16'3 6.2
2018-May-08 01:01N 51°22' E 004°13'4 7.3
2018-May-08 00:30N 51°22' E 004°08'510.5
2018-May-08 00:00N 51°26' E 004°01'510.8
2018-May-07 23:30N 51°22' E 003°55'  
Track history (hours):
 
Tides and Currents Weather Stations Pressure Air Temp Water Temp Dewpoint Dewpoint Depression Visibility Wind Speed Wind Dir Waves Ship Positions

Ardmore Capella

Last reported at 2018-May-17 23:08 UTC. Time now 2018-May-23 15:10 UTC.
Position N 39°49' E 025°50'.

Length 144 m; draft 6 m.

Type: Ship. MMSI: 538004321.

Date/timePositionNaut miles runAvg speedWind from/ knotsBaromVisibWave heightAir tempDewpointWater temp
2018-May-17 23:08N 39°49' E 025°50'416.2
2018-May-17 22:54N 39°46' E 025°47'13318.8
2018-May-17 15:50N 37°49' E 024°26'719.6
2018-May-17 15:29N 37°44' E 024°20'1119.7
2018-May-17 14:56N 37°38' E 024°09'819.6
2018-May-17 14:30N 37°37' E 023°58'1019.8
2018-May-17 14:01N 37°37' E 023°46'918.4
2018-May-17 13:31N 37°44' E 023°40'918.7
2018-May-17 13:01N 37°53' E 023°36'4 7.7
2018-May-17 12:31N 37°57' E 023°35'0 0.4
2018-May-17 12:00N 37°57' E 023°35'0 0.0
2018-May-17 11:30N 37°57' E 023°35'0 0.0
2018-May-17 11:00N 37°57' E 023°35'0 0.0
2018-May-17 10:30N 37°57' E 023°35'0 0.0
2018-May-17 10:00N 37°57' E 023°35'0 0.0
2018-May-17 09:30N 37°57' E 023°35'0 0.0
2018-May-17 09:00N 37°57' E 023°35'0 0.0
2018-May-17 08:30N 37°57' E 023°35'0 0.0
2018-May-17 08:00N 37°57' E 023°35'0 0.0
2018-May-17 07:30N 37°57' E 023°35'0 0.0
2018-May-17 07:00N 37°57' E 023°35'0 0.0
2018-May-17 06:30N 37°57' E 023°35'0 0.0
2018-May-17 06:00N 37°57' E 023°35'0 0.0
2018-May-17 05:30N 37°57' E 023°35'0 0.0
2018-May-17 05:00N 37°57' E 023°35'0 0.0
2018-May-17 04:30N 37°57' E 023°35'0 0.0
2018-May-17 04:00N 37°57' E 023°35'0 0.0
2018-May-17 03:30N 37°57' E 023°35'0 0.0
2018-May-16 20:57N 37°57' E 023°35'0 0.0
2018-May-16 20:29N 37°57' E 023°35'0 0.0
2018-May-16 19:59N 37°57' E 023°35'0 0.0
2018-May-16 19:29N 37°57' E 023°35'0 0.0
2018-May-16 18:59N 37°57' E 023°35'0 0.0
2018-May-16 18:29N 37°57' E 023°35'0 0.0
2018-May-16 17:59N 37°57' E 023°35'0 0.0
2018-May-16 17:29N 37°57' E 023°35'0 0.0
2018-May-16 16:59N 37°57' E 023°35'0 0.0
2018-May-16 16:29N 37°57' E 023°35'0 0.0
2018-May-16 15:59N 37°57' E 023°35'0 0.0
2018-May-16 15:29N 37°57' E 023°35'0 0.0
2018-May-16 14:59N 37°57' E 023°35'0 0.1
2018-May-16 14:30N 37°57' E 023°35'2 3.6
2018-May-16 14:01N 37°56' E 023°35'1 1.1
2018-May-16 13:30N 37°55' E 023°36'0 0.1
2018-May-16 13:00N 37°55' E 023°36'0 0.2
2018-May-16 12:30N 37°55' E 023°36'0 0.4
2018-May-16 12:00N 37°55' E 023°36'1 1.8
2018-May-16 11:30N 37°54' E 023°36'1 1.8
2018-May-16 11:01N 37°54' E 023°37'611.6
2018-May-16 10:30N 37°49' E 023°40'613.0
2018-May-16 10:01N 37°43' E 023°44'612.4
2018-May-16 09:30N 37°37' E 023°46'713.4
2018-May-16 09:01N 37°31' E 023°43'713.7
2018-May-16 08:30N 37°24' E 023°40'917.5
2018-May-16 08:00N 37°16' E 023°35'919.0
2018-May-16 07:30N 37°07' E 023°31'918.8
2018-May-16 07:00N 36°59' E 023°26'41818.1
2018-May-15 07:57N 36°29' E 014°46'919.5
2018-May-15 07:30N 36°30' E 014°35'1019.7
2018-May-15 07:00N 36°35' E 014°24'1019.5
2018-May-15 06:30N 36°40' E 014°14'1019.1
2018-May-15 06:00N 36°45' E 014°04'1019.1
2018-May-15 05:30N 36°50' E 013°54'1019.1
2018-May-15 05:00N 36°54' E 013°43'1019.1
2018-May-15 04:30N 36°59' E 013°33'1019.3
2018-May-15 04:00N 37°04' E 013°22'1219.5
2018-May-15 03:24N 37°11' E 013°10'819.3
2018-May-15 03:00N 37°15' E 013°02'1019.3
2018-May-15 02:30N 37°18' E 012°51'18419.4
2018-May-14 17:02N 38°54' E 009°31'220.2
2018-May-14 16:56N 38°55' E 009°29'2011.5
2018-May-14 15:13N 39°07' E 009°09'314.4
2018-May-14 14:59N 39°10' E 009°07'3 6.5
2018-May-14 14:30N 39°13' E 009°04'0 0.0
2018-May-14 13:12N 39°13' E 009°04'0 0.0
2018-May-14 13:00N 39°13' E 009°04'0 0.0
2018-May-14 12:30N 39°13' E 009°04'0 0.0
2018-May-14 11:54N 39°13' E 009°04'0 0.0
2018-May-14 11:30N 39°13' E 009°04'0 0.0
2018-May-14 11:00N 39°13' E 009°04'0 0.0
2018-May-14 10:27N 39°13' E 009°04'0 0.0
2018-May-14 10:00N 39°13' E 009°04'0 0.0
2018-May-14 09:30N 39°13' E 009°04'0 0.0
2018-May-14 09:00N 39°13' E 009°04'0 0.0
2018-May-14 08:30N 39°13' E 009°04'0 0.0
2018-May-14 08:00N 39°13' E 009°04'0 0.0
2018-May-14 07:30N 39°13' E 009°04'0 0.0
2018-May-14 07:00N 39°13' E 009°04'0 0.0
2018-May-14 06:30N 39°13' E 009°04'0 0.0
2018-May-14 06:00N 39°13' E 009°04'0 0.0
2018-May-14 05:30N 39°13' E 009°04'0 0.0
2018-May-14 05:00N 39°13' E 009°04'0 0.0
2018-May-14 04:30N 39°13' E 009°04'0 0.0
2018-May-14 04:00N 39°13' E 009°04'0 0.0
2018-May-14 03:30N 39°13' E 009°04'0 0.0
2018-May-14 03:00N 39°13' E 009°04'0 0.0
2018-May-14 02:30N 39°13' E 009°04'0 0.0
2018-May-14 02:00N 39°13' E 009°04'0 0.0
2018-May-14 01:30N 39°13' E 009°04'0 0.0
2018-May-14 01:00N 39°13' E 009°04'0 0.0
2018-May-14 00:30N 39°13' E 009°04'0 0.0
2018-May-14 00:00N 39°13' E 009°04'0 0.0
2018-May-13 23:30N 39°13' E 009°04'0 0.0
2018-May-13 23:00N 39°13' E 009°04'0 0.0
2018-May-13 22:30N 39°13' E 009°04'0 0.0
2018-May-13 22:00N 39°13' E 009°04'0 0.0
2018-May-13 21:30N 39°13' E 009°04'0 0.0
2018-May-13 21:00N 39°13' E 009°04'0 0.0
2018-May-13 20:30N 39°13' E 009°04'0 0.0
2018-May-13 20:00N 39°13' E 009°04'0 0.0
2018-May-13 19:30N 39°13' E 009°04'0 0.0
2018-May-13 19:00N 39°13' E 009°04'0 0.0
2018-May-13 18:30N 39°13' E 009°04'0 0.0
2018-May-13 18:00N 39°13' E 009°04'0 0.0
2018-May-13 17:30N 39°13' E 009°04'0 0.0
2018-May-13 17:00N 39°13' E 009°04'0 0.0
2018-May-13 16:30N 39°13' E 009°04'0 0.0
2018-May-13 16:00N 39°13' E 009°04'0 0.4
2018-May-13 15:29N 39°13' E 009°04'0 0.7
2018-May-13 14:59N 39°13' E 009°05'5 9.3
2018-May-13 14:30N 39°09' E 009°08'713.1
2018-May-13 14:00N 39°02' E 009°08'918.2
2018-May-13 13:30N 38°53' E 009°08'38919.0
2018-May-12 17:03N 36°51' E 001°20'120.9
2018-May-12 17:00N 36°51' E 001°19'1121.3
2018-May-12 16:28N 36°48' E 001°05'1020.9
2018-May-12 16:00N 36°46' E 000°53'1320.9
2018-May-12 15:22N 36°43' E 000°37'920.6
2018-May-12 14:54N 36°42' E 000°25'920.2
2018-May-12 14:29N 36°40' E 000°15'24620.4
2018-May-12 02:26N 36°03' W 004°47'1321.4
2018-May-12 01:51N 36°01' W 005°03'820.5
2018-May-12 01:28N 36°00' W 005°12'1022.0
2018-May-12 01:00N 35°58' W 005°25'25016.0
2018-May-11 09:20N 38°02' W 009°57'619.4
2018-May-11 09:00N 38°08' W 009°59'1019.4
2018-May-11 08:29N 38°18' W 010°01'919.5
2018-May-11 08:01N 38°27' W 010°03'1019.4
2018-May-11 07:30N 38°37' W 010°05'1019.4
2018-May-11 07:00N 38°46' W 010°06'1019.4
2018-May-11 06:30N 38°56' W 010°05'1019.4
2018-May-11 06:00N 39°06' W 010°06'1019.5
2018-May-11 05:29N 39°16' W 010°06'69917.6
2018-May-09 13:50N 49°51' W 003°16'717.2
2018-May-09 13:25N 49°55' W 003°06'717.2
2018-May-09 13:00N 49°58' W 002°56'917.5
2018-May-09 12:30N 50°00' W 002°43'917.5
2018-May-09 11:59N 50°02' W 002°30'3918.4
2018-May-09 09:52N 50°13' W 001°31'719.2
2018-May-09 09:30N 50°15' W 001°21'1019.6
2018-May-09 09:00N 50°18' W 001°06'1020.3
2018-May-09 08:31N 50°20' W 000°50'1019.8
2018-May-09 08:00N 50°22' W 000°35'1019.5
2018-May-09 07:29N 50°26' W 000°20'1219.2
2018-May-09 06:52N 50°29' W 000°02'719.1
2018-May-09 06:31N 50°31' E 000°08'1018.8
2018-May-09 05:57N 50°34' E 000°24'818.5
2018-May-09 05:31N 50°37' E 000°36'918.2
2018-May-09 05:01N 50°42' E 000°48'918.0
2018-May-09 04:31N 50°48' E 000°59'1018.2
2018-May-09 03:59N 50°54' E 001°10'1518.6
2018-May-09 03:12N 51°04' E 001°27'419.4
2018-May-09 03:00N 51°06' E 001°32'1019.5
2018-May-09 02:31N 51°12' E 001°44'1019.8
2018-May-09 02:01N 51°20' E 001°53'816.5
2018-May-09 01:30N 51°24' E 002°06'918.6
2018-May-09 01:00N 51°21' E 002°20'918.6
2018-May-09 00:30N 51°23' E 002°35'714.4
2018-May-09 00:00N 51°22' E 002°46'714.5
2018-May-08 23:30N 51°23' E 002°58'816.3
2018-May-08 23:00N 51°24' E 003°10'917.4
2018-May-08 22:30N 51°25' E 003°24'714.6
2018-May-08 22:00N 51°26' E 003°36'611.3
2018-May-08 21:30N 51°23' E 003°43'714.8
2018-May-08 21:00N 51°22' E 003°55'510.3
2018-May-08 20:30N 51°25' E 004°02'510.8
2018-May-08 20:00N 51°24' E 004°11'4 8.4
2018-May-08 19:30N 51°21' E 004°16'3 6.2
2018-May-08 19:00N 51°18' E 004°16'0 0.0
2018-May-08 18:30N 51°18' E 004°16'0 0.0
2018-May-08 17:57N 51°18' E 004°16'0 0.0
2018-May-08 17:24N 51°18' E 004°16'0 0.0
2018-May-08 17:00N 51°18' E 004°16'0 0.0
2018-May-08 16:30N 51°18' E 004°16'0 0.0
2018-May-08 16:00N 51°18' E 004°16'0 0.0
2018-May-08 15:27N 51°18' E 004°16'0 0.0
2018-May-08 15:00N 51°18' E 004°16'0 0.0
2018-May-08 14:30N 51°18' E 004°16'0 0.0
2018-May-08 14:00N 51°18' E 004°16'0 0.0
2018-May-08 13:27N 51°18' E 004°16'0 0.0
2018-May-08 13:00N 51°18' E 004°16'0 0.0
2018-May-08 12:30N 51°18' E 004°16'0 0.0
2018-May-08 12:00N 51°18' E 004°16'0 0.0
2018-May-08 11:24N 51°18' E 004°16'0 0.0
2018-May-08 11:00N 51°18' E 004°16'0 0.0
2018-May-08 10:24N 51°18' E 004°16'0 0.0
2018-May-08 10:00N 51°18' E 004°16'0 0.0
2018-May-08 09:30N 51°18' E 004°16'0 0.0
2018-May-08 08:48N 51°18' E 004°16'0 0.0
2018-May-08 08:24N 51°18' E 004°16'0 0.0
2018-May-08 08:00N 51°18' E 004°16'0 0.0
2018-May-08 07:27N 51°18' E 004°16'0 0.0
2018-May-08 07:00N 51°18' E 004°16'0 0.0
2018-May-08 06:30N 51°18' E 004°16'0 0.0
2018-May-08 05:57N 51°18' E 004°16'0 0.0
2018-May-08 05:30N 51°18' E 004°16'0 0.0
2018-May-08 04:57N 51°18' E 004°16'0 0.0
2018-May-08 04:30N 51°18' E 004°16'0 0.0
2018-May-08 04:00N 51°18' E 004°16'0 0.0
2018-May-08 03:30N 51°18' E 004°16'0 0.0
2018-May-08 03:00N 51°18' E 004°16'0 0.0
2018-May-08 02:30N 51°18' E 004°16'0 0.2
2018-May-08 02:01N 51°18' E 004°16'1 2.8
2018-May-08 01:31N 51°19' E 004°16'3 6.2
2018-May-08 01:01N 51°22' E 004°13'4 7.3
2018-May-08 00:30N 51°22' E 004°08'510.5
2018-May-08 00:00N 51°26' E 004°01'510.8
2018-May-07 23:30N 51°22' E 003°55'  

Dump ship's entire track history